sensor_id;sensor_type;location;lat;lon;timestamp;P1;durP1;ratioP1;P2;durP2;ratioP2
6638;SDS011;3355;52.882;8.430;2023-10-13T00:01:08;23.63;;;17.63;;
6638;SDS011;3355;52.882;8.430;2023-10-13T00:03:38;28.23;;;17.40;;
6638;SDS011;3355;52.882;8.430;2023-10-13T00:06:05;24.13;;;18.57;;
6638;SDS011;3355;52.882;8.430;2023-10-13T00:08:33;23.10;;;17.37;;
6638;SDS011;3355;52.882;8.430;2023-10-13T00:11:01;27.67;;;19.07;;
6638;SDS011;3355;52.882;8.430;2023-10-13T00:13:31;23.90;;;18.77;;
6638;SDS011;3355;52.882;8.430;2023-10-13T00:16:06;25.70;;;19.30;;
6638;SDS011;3355;52.882;8.430;2023-10-13T00:18:35;26.23;;;18.37;;
6638;SDS011;3355;52.882;8.430;2023-10-13T00:21:08;25.47;;;19.67;;
6638;SDS011;3355;52.882;8.430;2023-10-13T00:23:38;26.13;;;19.77;;
6638;SDS011;3355;52.882;8.430;2023-10-13T00:26:08;27.30;;;19.67;;
6638;SDS011;3355;52.882;8.430;2023-10-13T00:28:36;28.20;;;21.07;;
6638;SDS011;3355;52.882;8.430;2023-10-13T00:31:09;25.80;;;20.37;;
6638;SDS011;3355;52.882;8.430;2023-10-13T00:33:37;28.93;;;21.03;;
6638;SDS011;3355;52.882;8.430;2023-10-13T00:36:08;27.53;;;20.90;;
6638;SDS011;3355;52.882;8.430;2023-10-13T00:38:42;28.97;;;22.27;;
6638;SDS011;3355;52.882;8.430;2023-10-13T00:41:13;29.10;;;21.37;;
6638;SDS011;3355;52.882;8.430;2023-10-13T00:43:45;33.03;;;20.33;;
6638;SDS011;3355;52.882;8.430;2023-10-13T00:46:29;23.83;;;18.80;;
6638;SDS011;3355;52.882;8.430;2023-10-13T00:48:58;25.10;;;20.00;;
6638;SDS011;3355;52.882;8.430;2023-10-13T00:51:28;25.27;;;20.43;;
6638;SDS011;3355;52.882;8.430;2023-10-13T00:54:02;23.63;;;17.87;;
6638;SDS011;3355;52.882;8.430;2023-10-13T00:56:32;27.00;;;21.10;;
6638;SDS011;3355;52.882;8.430;2023-10-13T00:59:05;22.73;;;18.30;;
6638;SDS011;3355;52.882;8.430;2023-10-13T01:01:34;22.50;;;19.17;;
6638;SDS011;3355;52.882;8.430;2023-10-13T01:04:02;22.50;;;17.67;;
6638;SDS011;3355;52.882;8.430;2023-10-13T01:06:30;21.30;;;17.60;;
6638;SDS011;3355;52.882;8.430;2023-10-13T01:08:57;20.80;;;17.20;;
6638;SDS011;3355;52.882;8.430;2023-10-13T01:11:25;27.97;;;20.77;;
6638;SDS011;3355;52.882;8.430;2023-10-13T01:13:54;23.43;;;20.57;;
6638;SDS011;3355;52.882;8.430;2023-10-13T01:16:20;25.17;;;20.47;;
6638;SDS011;3355;52.882;8.430;2023-10-13T01:18:48;25.00;;;19.87;;
6638;SDS011;3355;52.882;8.430;2023-10-13T01:21:14;23.30;;;20.03;;
6638;SDS011;3355;52.882;8.430;2023-10-13T01:23:47;24.17;;;20.20;;
6638;SDS011;3355;52.882;8.430;2023-10-13T01:26:15;26.77;;;21.10;;
6638;SDS011;3355;52.882;8.430;2023-10-13T01:28:46;30.97;;;22.97;;
6638;SDS011;3355;52.882;8.430;2023-10-13T01:31:13;30.57;;;23.87;;
6638;SDS011;3355;52.882;8.430;2023-10-13T01:33:49;30.23;;;21.50;;
6638;SDS011;3355;52.882;8.430;2023-10-13T01:36:18;31.13;;;22.33;;
6638;SDS011;3355;52.882;8.430;2023-10-13T01:38:47;28.17;;;22.70;;
6638;SDS011;3355;52.882;8.430;2023-10-13T01:41:12;27.07;;;22.57;;
6638;SDS011;3355;52.882;8.430;2023-10-13T01:43:40;34.90;;;22.37;;
6638;SDS011;3355;52.882;8.430;2023-10-13T01:46:06;26.63;;;22.87;;
6638;SDS011;3355;52.882;8.430;2023-10-13T01:48:34;30.03;;;23.57;;
6638;SDS011;3355;52.882;8.430;2023-10-13T01:51:05;27.60;;;22.10;;
6638;SDS011;3355;52.882;8.430;2023-10-13T01:53:34;26.70;;;21.20;;
6638;SDS011;3355;52.882;8.430;2023-10-13T01:56:04;34.17;;;22.47;;
6638;SDS011;3355;52.882;8.430;2023-10-13T01:58:35;27.97;;;22.47;;
6638;SDS011;3355;52.882;8.430;2023-10-13T02:01:02;28.80;;;21.47;;
6638;SDS011;3355;52.882;8.430;2023-10-13T02:03:32;26.97;;;21.70;;
6638;SDS011;3355;52.882;8.430;2023-10-13T02:05:59;30.40;;;22.87;;
6638;SDS011;3355;52.882;8.430;2023-10-13T02:08:29;27.90;;;22.10;;
6638;SDS011;3355;52.882;8.430;2023-10-13T02:10:57;28.07;;;22.10;;
6638;SDS011;3355;52.882;8.430;2023-10-13T02:13:26;23.53;;;20.60;;
6638;SDS011;3355;52.882;8.430;2023-10-13T02:15:53;32.30;;;23.20;;
6638;SDS011;3355;52.882;8.430;2023-10-13T02:18:21;27.33;;;21.63;;
6638;SDS011;3355;52.882;8.430;2023-10-13T02:20:52;26.40;;;21.23;;
6638;SDS011;3355;52.882;8.430;2023-10-13T02:23:20;25.87;;;20.50;;
6638;SDS011;3355;52.882;8.430;2023-10-13T02:25:47;26.80;;;20.17;;
6638;SDS011;3355;52.882;8.430;2023-10-13T02:28:13;28.63;;;21.53;;
6638;SDS011;3355;52.882;8.430;2023-10-13T02:30:42;28.80;;;23.37;;
6638;SDS011;3355;52.882;8.430;2023-10-13T02:33:10;26.20;;;20.43;;
6638;SDS011;3355;52.882;8.430;2023-10-13T02:35:38;25.93;;;21.47;;
6638;SDS011;3355;52.882;8.430;2023-10-13T02:38:07;22.97;;;19.80;;
6638;SDS011;3355;52.882;8.430;2023-10-13T02:40:36;27.70;;;21.50;;
6638;SDS011;3355;52.882;8.430;2023-10-13T02:43:02;31.10;;;23.10;;
6638;SDS011;3355;52.882;8.430;2023-10-13T02:45:30;26.43;;;18.83;;
6638;SDS011;3355;52.882;8.430;2023-10-13T02:48:03;25.47;;;21.47;;
6638;SDS011;3355;52.882;8.430;2023-10-13T02:50:39;29.40;;;21.50;;
6638;SDS011;3355;52.882;8.430;2023-10-13T02:53:08;25.23;;;20.30;;
6638;SDS011;3355;52.882;8.430;2023-10-13T02:55:37;20.10;;;17.20;;
6638;SDS011;3355;52.882;8.430;2023-10-13T02:58:05;29.97;;;20.50;;
6638;SDS011;3355;52.882;8.430;2023-10-13T03:00:31;24.80;;;20.13;;
6638;SDS011;3355;52.882;8.430;2023-10-13T03:02:58;25.60;;;20.33;;
6638;SDS011;3355;52.882;8.430;2023-10-13T03:05:25;26.70;;;19.87;;
6638;SDS011;3355;52.882;8.430;2023-10-13T03:07:54;26.50;;;19.80;;
6638;SDS011;3355;52.882;8.430;2023-10-13T03:10:20;28.50;;;21.00;;
6638;SDS011;3355;52.882;8.430;2023-10-13T03:12:53;22.43;;;20.03;;
6638;SDS011;3355;52.882;8.430;2023-10-13T03:15:20;23.00;;;19.70;;
6638;SDS011;3355;52.882;8.430;2023-10-13T05:40:11;15.57;;;13.70;;
6638;SDS011;3355;52.882;8.430;2023-10-13T05:42:55;17.87;;;14.70;;
6638;SDS011;3355;52.882;8.430;2023-10-13T05:45:39;15.17;;;13.67;;
6638;SDS011;3355;52.882;8.430;2023-10-13T05:48:40;17.27;;;13.53;;
6638;SDS011;3355;52.882;8.430;2023-10-13T05:53:55;15.13;;;13.17;;
6638;SDS011;3355;52.882;8.430;2023-10-13T05:56:40;15.90;;;14.00;;
6638;SDS011;3355;52.882;8.430;2023-10-13T05:59:25;14.93;;;13.33;;
6638;SDS011;3355;52.882;8.430;2023-10-13T06:02:12;25.10;;;15.97;;
6638;SDS011;3355;52.882;8.430;2023-10-13T06:04:56;20.17;;;16.53;;
6638;SDS011;3355;52.882;8.430;2023-10-13T06:07:40;17.27;;;15.40;;
6638;SDS011;3355;52.882;8.430;2023-10-13T06:13:11;21.30;;;15.57;;
6638;SDS011;3355;52.882;8.430;2023-10-13T06:16:09;21.73;;;15.93;;
6638;SDS011;3355;52.882;8.430;2023-10-13T06:18:54;16.73;;;14.70;;
6638;SDS011;3355;52.882;8.430;2023-10-13T06:21:38;16.30;;;14.57;;
6638;SDS011;3355;52.882;8.430;2023-10-13T06:47:40;20.27;;;16.80;;
6638;SDS011;3355;52.882;8.430;2023-10-13T06:50:08;18.97;;;16.20;;
6638;SDS011;3355;52.882;8.430;2023-10-13T11:02:34;6.67;;;4.93;;
6638;SDS011;3355;52.882;8.430;2023-10-13T12:24:54;6.97;;;5.30;;
6638;SDS011;3355;52.882;8.430;2023-10-13T12:27:21;5.40;;;4.53;;
6638;SDS011;3355;52.882;8.430;2023-10-13T12:29:52;9.63;;;5.90;;
6638;SDS011;3355;52.882;8.430;2023-10-13T12:32:21;6.47;;;5.60;;
6638;SDS011;3355;52.882;8.430;2023-10-13T12:34:50;7.07;;;5.00;;
6638;SDS011;3355;52.882;8.430;2023-10-13T12:37:42;8.87;;;4.60;;
6638;SDS011;3355;52.882;8.430;2023-10-13T12:40:31;7.30;;;4.40;;
6638;SDS011;3355;52.882;8.430;2023-10-13T12:43:15;6.23;;;4.73;;
6638;SDS011;3355;52.882;8.430;2023-10-13T12:46:14;6.93;;;5.97;;
6638;SDS011;3355;52.882;8.430;2023-10-13T12:48:58;11.47;;;4.90;;
6638;SDS011;3355;52.882;8.430;2023-10-13T12:51:41;12.97;;;6.33;;
6638;SDS011;3355;52.882;8.430;2023-10-13T12:54:16;9.13;;;6.13;;
6638;SDS011;3355;52.882;8.430;2023-10-13T12:56:53;6.33;;;5.00;;
6638;SDS011;3355;52.882;8.430;2023-10-13T12:59:22;12.27;;;5.00;;
6638;SDS011;3355;52.882;8.430;2023-10-13T13:01:51;8.93;;;5.63;;
6638;SDS011;3355;52.882;8.430;2023-10-13T13:04:18;7.30;;;4.67;;
6638;SDS011;3355;52.882;8.430;2023-10-13T13:06:46;8.40;;;5.17;;
6638;SDS011;3355;52.882;8.430;2023-10-13T13:09:13;7.57;;;5.10;;
6638;SDS011;3355;52.882;8.430;2023-10-13T13:11:39;7.77;;;5.23;;
6638;SDS011;3355;52.882;8.430;2023-10-13T13:14:08;8.90;;;5.23;;
6638;SDS011;3355;52.882;8.430;2023-10-13T13:16:36;7.90;;;5.77;;
6638;SDS011;3355;52.882;8.430;2023-10-13T13:19:04;7.47;;;4.33;;
6638;SDS011;3355;52.882;8.430;2023-10-13T13:21:35;8.87;;;5.90;;
6638;SDS011;3355;52.882;8.430;2023-10-13T13:24:02;7.87;;;5.03;;
6638;SDS011;3355;52.882;8.430;2023-10-13T13:26:30;8.67;;;5.40;;
6638;SDS011;3355;52.882;8.430;2023-10-13T13:28:57;7.40;;;5.33;;
6638;SDS011;3355;52.882;8.430;2023-10-13T13:31:25;10.83;;;5.50;;
6638;SDS011;3355;52.882;8.430;2023-10-13T13:33:54;6.80;;;5.00;;
6638;SDS011;3355;52.882;8.430;2023-10-13T13:36:21;11.20;;;6.03;;
6638;SDS011;3355;52.882;8.430;2023-10-13T13:38:50;7.83;;;5.90;;
6638;SDS011;3355;52.882;8.430;2023-10-13T13:41:20;8.30;;;6.07;;
6638;SDS011;3355;52.882;8.430;2023-10-13T13:43:47;11.27;;;5.53;;
6638;SDS011;3355;52.882;8.430;2023-10-13T13:46:22;12.97;;;6.70;;
6638;SDS011;3355;52.882;8.430;2023-10-13T13:48:53;7.50;;;5.70;;
6638;SDS011;3355;52.882;8.430;2023-10-13T13:51:24;11.50;;;5.80;;
6638;SDS011;3355;52.882;8.430;2023-10-13T13:53:53;7.43;;;5.10;;
6638;SDS011;3355;52.882;8.430;2023-10-13T13:56:20;6.30;;;5.40;;
6638;SDS011;3355;52.882;8.430;2023-10-13T13:58:50;7.10;;;5.70;;
6638;SDS011;3355;52.882;8.430;2023-10-13T14:01:18;9.80;;;6.37;;
6638;SDS011;3355;52.882;8.430;2023-10-13T14:03:47;11.53;;;5.67;;
6638;SDS011;3355;52.882;8.430;2023-10-13T14:06:17;10.70;;;5.60;;
6638;SDS011;3355;52.882;8.430;2023-10-13T14:08:46;13.67;;;6.30;;
6638;SDS011;3355;52.882;8.430;2023-10-13T14:11:16;8.27;;;5.93;;
6638;SDS011;3355;52.882;8.430;2023-10-13T14:13:56;7.07;;;5.20;;
6638;SDS011;3355;52.882;8.430;2023-10-13T14:16:23;10.33;;;5.63;;
6638;SDS011;3355;52.882;8.430;2023-10-13T14:18:50;11.80;;;5.60;;
6638;SDS011;3355;52.882;8.430;2023-10-13T14:21:18;11.30;;;6.10;;
6638;SDS011;3355;52.882;8.430;2023-10-13T14:23:49;9.33;;;5.60;;
6638;SDS011;3355;52.882;8.430;2023-10-13T14:26:18;12.47;;;5.83;;
6638;SDS011;3355;52.882;8.430;2023-10-13T14:28:46;11.03;;;6.90;;
6638;SDS011;3355;52.882;8.430;2023-10-13T14:31:17;11.10;;;5.80;;
6638;SDS011;3355;52.882;8.430;2023-10-13T14:33:45;8.30;;;4.93;;
6638;SDS011;3355;52.882;8.430;2023-10-13T14:36:12;12.50;;;6.00;;
6638;SDS011;3355;52.882;8.430;2023-10-13T14:38:43;10.57;;;6.20;;
6638;SDS011;3355;52.882;8.430;2023-10-13T14:41:14;7.37;;;5.00;;
6638;SDS011;3355;52.882;8.430;2023-10-13T14:43:41;8.87;;;6.13;;
6638;SDS011;3355;52.882;8.430;2023-10-13T14:46:12;10.40;;;5.90;;
6638;SDS011;3355;52.882;8.430;2023-10-13T14:48:39;9.20;;;5.50;;
6638;SDS011;3355;52.882;8.430;2023-10-13T14:51:08;12.07;;;6.40;;
6638;SDS011;3355;52.882;8.430;2023-10-13T14:53:38;8.77;;;5.40;;
6638;SDS011;3355;52.882;8.430;2023-10-13T14:56:10;9.70;;;5.60;;
6638;SDS011;3355;52.882;8.430;2023-10-13T14:58:37;6.87;;;4.80;;
6638;SDS011;3355;52.882;8.430;2023-10-13T15:01:11;7.60;;;5.70;;
6638;SDS011;3355;52.882;8.430;2023-10-13T15:03:40;9.53;;;5.47;;
6638;SDS011;3355;52.882;8.430;2023-10-13T15:06:07;13.27;;;5.90;;
6638;SDS011;3355;52.882;8.430;2023-10-13T15:08:34;8.03;;;5.57;;
6638;SDS011;3355;52.882;8.430;2023-10-13T15:11:07;11.90;;;5.80;;
6638;SDS011;3355;52.882;8.430;2023-10-13T15:13:39;10.97;;;6.80;;
6638;SDS011;3355;52.882;8.430;2023-10-13T15:18:48;8.67;;;5.20;;
6638;SDS011;3355;52.882;8.430;2023-10-13T15:21:18;10.50;;;5.30;;
6638;SDS011;3355;52.882;8.430;2023-10-13T15:23:46;11.53;;;6.77;;
6638;SDS011;3355;52.882;8.430;2023-10-13T15:26:13;13.73;;;5.70;;
6638;SDS011;3355;52.882;8.430;2023-10-13T15:28:41;12.93;;;5.53;;
6638;SDS011;3355;52.882;8.430;2023-10-13T15:31:13;13.57;;;6.33;;
6638;SDS011;3355;52.882;8.430;2023-10-13T15:33:51;7.63;;;4.67;;
6638;SDS011;3355;52.882;8.430;2023-10-13T15:36:19;10.43;;;5.90;;
6638;SDS011;3355;52.882;8.430;2023-10-13T15:38:47;11.97;;;5.70;;
6638;SDS011;3355;52.882;8.430;2023-10-13T15:41:20;7.30;;;4.30;;
6638;SDS011;3355;52.882;8.430;2023-10-13T15:43:48;12.67;;;5.63;;
6638;SDS011;3355;52.882;8.430;2023-10-13T15:46:16;9.90;;;5.40;;
6638;SDS011;3355;52.882;8.430;2023-10-13T15:48:44;8.40;;;4.70;;
6638;SDS011;3355;52.882;8.430;2023-10-13T15:51:13;10.83;;;5.47;;
6638;SDS011;3355;52.882;8.430;2023-10-13T15:53:41;9.50;;;6.37;;
6638;SDS011;3355;52.882;8.430;2023-10-13T15:56:09;7.00;;;5.53;;
6638;SDS011;3355;52.882;8.430;2023-10-13T15:58:38;10.33;;;5.27;;
6638;SDS011;3355;52.882;8.430;2023-10-13T16:01:06;16.57;;;5.40;;
6638;SDS011;3355;52.882;8.430;2023-10-13T16:03:33;13.83;;;6.23;;
6638;SDS011;3355;52.882;8.430;2023-10-13T16:06:01;11.70;;;5.73;;
6638;SDS011;3355;52.882;8.430;2023-10-13T16:08:35;14.47;;;5.37;;
6638;SDS011;3355;52.882;8.430;2023-10-13T16:11:05;6.80;;;4.60;;
6638;SDS011;3355;52.882;8.430;2023-10-13T16:13:34;7.27;;;4.80;;
6638;SDS011;3355;52.882;8.430;2023-10-13T16:16:02;9.17;;;5.60;;
6638;SDS011;3355;52.882;8.430;2023-10-13T16:18:30;13.70;;;6.67;;
6638;SDS011;3355;52.882;8.430;2023-10-13T16:20:58;7.60;;;4.90;;
6638;SDS011;3355;52.882;8.430;2023-10-13T16:23:28;10.93;;;5.67;;
6638;SDS011;3355;52.882;8.430;2023-10-13T16:25:55;10.00;;;5.83;;
6638;SDS011;3355;52.882;8.430;2023-10-13T16:28:24;10.83;;;5.60;;
6638;SDS011;3355;52.882;8.430;2023-10-13T16:30:50;7.53;;;5.07;;
6638;SDS011;3355;52.882;8.430;2023-10-13T16:33:19;8.97;;;5.50;;
6638;SDS011;3355;52.882;8.430;2023-10-13T16:35:48;9.97;;;4.60;;
6638;SDS011;3355;52.882;8.430;2023-10-13T16:38:18;8.90;;;4.73;;
6638;SDS011;3355;52.882;8.430;2023-10-13T16:40:45;11.97;;;5.97;;
6638;SDS011;3355;52.882;8.430;2023-10-13T16:43:12;9.43;;;5.33;;
6638;SDS011;3355;52.882;8.430;2023-10-13T16:45:39;11.80;;;5.70;;
6638;SDS011;3355;52.882;8.430;2023-10-13T16:48:09;9.70;;;5.20;;
6638;SDS011;3355;52.882;8.430;2023-10-13T16:50:38;8.97;;;5.77;;
6638;SDS011;3355;52.882;8.430;2023-10-13T16:53:08;8.30;;;5.20;;
6638;SDS011;3355;52.882;8.430;2023-10-13T16:55:35;8.70;;;6.57;;
6638;SDS011;3355;52.882;8.430;2023-10-13T16:58:02;11.30;;;5.10;;
6638;SDS011;3355;52.882;8.430;2023-10-13T17:00:29;6.63;;;5.33;;
6638;SDS011;3355;52.882;8.430;2023-10-13T17:02:56;9.70;;;5.37;;
6638;SDS011;3355;52.882;8.430;2023-10-13T17:05:23;11.23;;;5.13;;
6638;SDS011;3355;52.882;8.430;2023-10-13T17:07:52;10.40;;;5.43;;
6638;SDS011;3355;52.882;8.430;2023-10-13T17:10:24;7.43;;;5.20;;
6638;SDS011;3355;52.882;8.430;2023-10-13T17:12:53;6.80;;;5.07;;
6638;SDS011;3355;52.882;8.430;2023-10-13T17:15:21;6.87;;;5.67;;
6638;SDS011;3355;52.882;8.430;2023-10-13T17:17:48;7.67;;;5.57;;
6638;SDS011;3355;52.882;8.430;2023-10-13T17:20:15;7.67;;;5.13;;
6638;SDS011;3355;52.882;8.430;2023-10-13T17:22:42;8.10;;;6.33;;
6638;SDS011;3355;52.882;8.430;2023-10-13T17:25:09;8.50;;;5.90;;
6638;SDS011;3355;52.882;8.430;2023-10-13T17:27:39;8.93;;;5.07;;
6638;SDS011;3355;52.882;8.430;2023-10-13T17:30:08;10.10;;;4.97;;
6638;SDS011;3355;52.882;8.430;2023-10-13T17:32:36;7.70;;;4.90;;
6638;SDS011;3355;52.882;8.430;2023-10-13T17:35:04;8.33;;;5.30;;
6638;SDS011;3355;52.882;8.430;2023-10-13T17:37:32;13.23;;;5.30;;
6638;SDS011;3355;52.882;8.430;2023-10-13T17:39:59;8.67;;;5.03;;
6638;SDS011;3355;52.882;8.430;2023-10-13T17:42:26;12.30;;;5.43;;
6638;SDS011;3355;52.882;8.430;2023-10-13T17:44:55;13.03;;;6.70;;
6638;SDS011;3355;52.882;8.430;2023-10-13T17:47:21;9.13;;;5.33;;
6638;SDS011;3355;52.882;8.430;2023-10-13T17:49:51;9.63;;;5.43;;
6638;SDS011;3355;52.882;8.430;2023-10-13T17:52:17;8.13;;;5.27;;
6638;SDS011;3355;52.882;8.430;2023-10-13T17:54:44;8.43;;;5.17;;
6638;SDS011;3355;52.882;8.430;2023-10-13T17:57:11;11.70;;;5.80;;
6638;SDS011;3355;52.882;8.430;2023-10-13T17:59:41;7.60;;;6.17;;
6638;SDS011;3355;52.882;8.430;2023-10-13T18:02:10;10.23;;;5.67;;
6638;SDS011;3355;52.882;8.430;2023-10-13T18:04:37;11.77;;;7.77;;
6638;SDS011;3355;52.882;8.430;2023-10-13T18:07:06;7.80;;;6.60;;
6638;SDS011;3355;52.882;8.430;2023-10-13T18:09:36;10.73;;;6.37;;
6638;SDS011;3355;52.882;8.430;2023-10-13T18:12:05;9.80;;;5.63;;
6638;SDS011;3355;52.882;8.430;2023-10-13T18:14:33;7.10;;;5.47;;
6638;SDS011;3355;52.882;8.430;2023-10-13T18:17:01;7.70;;;5.57;;
6638;SDS011;3355;52.882;8.430;2023-10-13T18:19:31;9.57;;;5.30;;
6638;SDS011;3355;52.882;8.430;2023-10-13T18:21:59;10.90;;;6.00;;
6638;SDS011;3355;52.882;8.430;2023-10-13T18:24:26;6.00;;;5.00;;
6638;SDS011;3355;52.882;8.430;2023-10-13T18:26:53;14.73;;;6.83;;
6638;SDS011;3355;52.882;8.430;2023-10-13T18:29:21;6.93;;;5.30;;
6638;SDS011;3355;52.882;8.430;2023-10-13T18:31:48;8.90;;;5.20;;
6638;SDS011;3355;52.882;8.430;2023-10-13T18:34:16;7.57;;;5.37;;
6638;SDS011;3355;52.882;8.430;2023-10-13T18:36:44;9.80;;;5.47;;
6638;SDS011;3355;52.882;8.430;2023-10-13T18:39:14;9.03;;;7.20;;
6638;SDS011;3355;52.882;8.430;2023-10-13T18:41:44;11.00;;;5.73;;
6638;SDS011;3355;52.882;8.430;2023-10-13T18:44:13;8.03;;;5.30;;
6638;SDS011;3355;52.882;8.430;2023-10-13T18:46:40;7.03;;;5.10;;
6638;SDS011;3355;52.882;8.430;2023-10-13T18:49:06;9.77;;;5.37;;
6638;SDS011;3355;52.882;8.430;2023-10-13T18:51:36;8.83;;;5.87;;
6638;SDS011;3355;52.882;8.430;2023-10-13T18:54:04;14.57;;;6.43;;
6638;SDS011;3355;52.882;8.430;2023-10-13T18:56:32;6.87;;;5.27;;
6638;SDS011;3355;52.882;8.430;2023-10-13T18:58:59;8.40;;;5.50;;
6638;SDS011;3355;52.882;8.430;2023-10-13T19:01:27;9.37;;;6.40;;
6638;SDS011;3355;52.882;8.430;2023-10-13T19:03:55;12.30;;;6.60;;
6638;SDS011;3355;52.882;8.430;2023-10-13T19:06:25;10.27;;;5.83;;
6638;SDS011;3355;52.882;8.430;2023-10-13T19:08:53;7.10;;;5.40;;
6638;SDS011;3355;52.882;8.430;2023-10-13T19:11:22;11.17;;;5.37;;
6638;SDS011;3355;52.882;8.430;2023-10-13T19:13:50;13.03;;;5.20;;
6638;SDS011;3355;52.882;8.430;2023-10-13T19:16:17;9.03;;;5.77;;
6638;SDS011;3355;52.882;8.430;2023-10-13T19:18:45;12.00;;;6.63;;
6638;SDS011;3355;52.882;8.430;2023-10-13T19:21:12;8.50;;;6.37;;
6638;SDS011;3355;52.882;8.430;2023-10-13T19:23:42;7.53;;;5.33;;
6638;SDS011;3355;52.882;8.430;2023-10-13T19:26:11;7.30;;;4.80;;
6638;SDS011;3355;52.882;8.430;2023-10-13T19:28:39;5.90;;;4.40;;
6638;SDS011;3355;52.882;8.430;2023-10-13T19:31:07;9.67;;;5.20;;
6638;SDS011;3355;52.882;8.430;2023-10-13T19:33:37;6.30;;;4.83;;
6638;SDS011;3355;52.882;8.430;2023-10-13T19:36:04;6.93;;;5.27;;
6638;SDS011;3355;52.882;8.430;2023-10-13T19:38:31;7.03;;;4.80;;
6638;SDS011;3355;52.882;8.430;2023-10-13T19:40:58;7.53;;;4.63;;
6638;SDS011;3355;52.882;8.430;2023-10-13T19:43:25;6.90;;;4.80;;
6638;SDS011;3355;52.882;8.430;2023-10-13T19:45:53;10.30;;;6.37;;
6638;SDS011;3355;52.882;8.430;2023-10-13T19:48:20;7.23;;;5.17;;
6638;SDS011;3355;52.882;8.430;2023-10-13T19:50:50;10.97;;;5.90;;
6638;SDS011;3355;52.882;8.430;2023-10-13T19:53:19;10.60;;;5.40;;
6638;SDS011;3355;52.882;8.430;2023-10-13T19:55:46;11.37;;;5.90;;
6638;SDS011;3355;52.882;8.430;2023-10-13T19:58:12;7.73;;;5.27;;
6638;SDS011;3355;52.882;8.430;2023-10-13T20:00:40;7.90;;;5.57;;
6638;SDS011;3355;52.882;8.430;2023-10-13T20:03:08;5.80;;;5.07;;
6638;SDS011;3355;52.882;8.430;2023-10-13T20:05:45;9.60;;;4.70;;
6638;SDS011;3355;52.882;8.430;2023-10-13T20:08:11;7.50;;;5.17;;
6638;SDS011;3355;52.882;8.430;2023-10-13T20:10:38;7.00;;;4.93;;
6638;SDS011;3355;52.882;8.430;2023-10-13T20:13:05;6.47;;;5.30;;
6638;SDS011;3355;52.882;8.430;2023-10-13T20:15:32;7.90;;;4.83;;
6638;SDS011;3355;52.882;8.430;2023-10-13T20:17:59;8.93;;;4.80;;
6638;SDS011;3355;52.882;8.430;2023-10-13T20:20:34;6.23;;;4.80;;
6638;SDS011;3355;52.882;8.430;2023-10-13T20:23:04;6.20;;;4.20;;
6638;SDS011;3355;52.882;8.430;2023-10-13T20:25:31;5.57;;;4.47;;
6638;SDS011;3355;52.882;8.430;2023-10-13T20:27:58;8.50;;;4.60;;
6638;SDS011;3355;52.882;8.430;2023-10-13T20:30:26;7.13;;;4.90;;
6638;SDS011;3355;52.882;8.430;2023-10-13T20:32:52;4.73;;;3.70;;
6638;SDS011;3355;52.882;8.430;2023-10-13T20:35:19;5.90;;;4.07;;
6638;SDS011;3355;52.882;8.430;2023-10-13T20:37:49;5.37;;;3.23;;
6638;SDS011;3355;52.882;8.430;2023-10-13T20:40:20;5.73;;;2.90;;
6638;SDS011;3355;52.882;8.430;2023-10-13T20:42:48;3.53;;;2.17;;
6638;SDS011;3355;52.882;8.430;2023-10-13T20:45:16;3.80;;;2.60;;
6638;SDS011;3355;52.882;8.430;2023-10-13T20:47:47;5.70;;;2.97;;
6638;SDS011;3355;52.882;8.430;2023-10-13T20:50:15;4.10;;;3.20;;
6638;SDS011;3355;52.882;8.430;2023-10-13T20:52:42;4.50;;;3.33;;
6638;SDS011;3355;52.882;8.430;2023-10-13T20:55:10;5.20;;;3.97;;
6638;SDS011;3355;52.882;8.430;2023-10-13T20:57:41;5.73;;;4.23;;
6638;SDS011;3355;52.882;8.430;2023-10-13T21:00:08;6.43;;;4.70;;
6638;SDS011;3355;52.882;8.430;2023-10-13T21:02:44;7.40;;;5.70;;
6638;SDS011;3355;52.882;8.430;2023-10-13T21:05:12;8.60;;;6.70;;
6638;SDS011;3355;52.882;8.430;2023-10-13T21:07:39;8.30;;;5.80;;
6638;SDS011;3355;52.882;8.430;2023-10-13T21:10:06;7.77;;;6.97;;
6638;SDS011;3355;52.882;8.430;2023-10-13T21:12:39;9.07;;;6.87;;
6638;SDS011;3355;52.882;8.430;2023-10-13T21:15:08;11.63;;;6.07;;
6638;SDS011;3355;52.882;8.430;2023-10-13T21:38:18;18.40;;;7.87;;
6638;SDS011;3355;52.882;8.430;2023-10-13T21:40:45;8.63;;;7.23;;
6638;SDS011;3355;52.882;8.430;2023-10-13T21:43:11;8.80;;;7.60;;
6638;SDS011;3355;52.882;8.430;2023-10-13T21:45:40;14.43;;;8.77;;
6638;SDS011;3355;52.882;8.430;2023-10-13T21:48:10;9.17;;;7.53;;
6638;SDS011;3355;52.882;8.430;2023-10-13T21:50:39;13.97;;;8.13;;
6638;SDS011;3355;52.882;8.430;2023-10-13T21:53:06;13.00;;;7.70;;
6638;SDS011;3355;52.882;8.430;2023-10-13T21:55:34;10.87;;;7.30;;
6638;SDS011;3355;52.882;8.430;2023-10-13T21:58:00;11.70;;;7.60;;
6638;SDS011;3355;52.882;8.430;2023-10-13T22:00:27;12.43;;;8.53;;
6638;SDS011;3355;52.882;8.430;2023-10-13T22:03:07;9.30;;;7.63;;
6638;SDS011;3355;52.882;8.430;2023-10-13T22:05:37;9.57;;;8.30;;
6638;SDS011;3355;52.882;8.430;2023-10-13T22:08:04;12.33;;;8.77;;
6638;SDS011;3355;52.882;8.430;2023-10-13T22:10:31;14.93;;;8.53;;
6638;SDS011;3355;52.882;8.430;2023-10-13T22:12:59;11.67;;;8.83;;
6638;SDS011;3355;52.882;8.430;2023-10-13T22:15:28;9.30;;;8.13;;
6638;SDS011;3355;52.882;8.430;2023-10-13T22:17:55;10.03;;;8.87;;
6638;SDS011;3355;52.882;8.430;2023-10-13T22:20:22;9.47;;;8.33;;
6638;SDS011;3355;52.882;8.430;2023-10-13T22:22:49;9.03;;;7.97;;
6638;SDS011;3355;52.882;8.430;2023-10-13T22:25:16;11.97;;;9.10;;
6638;SDS011;3355;52.882;8.430;2023-10-13T22:27:44;12.10;;;8.47;;
6638;SDS011;3355;52.882;8.430;2023-10-13T22:30:14;10.10;;;8.67;;
6638;SDS011;3355;52.882;8.430;2023-10-13T22:32:43;14.67;;;9.30;;
6638;SDS011;3355;52.882;8.430;2023-10-13T22:35:10;16.17;;;9.03;;
6638;SDS011;3355;52.882;8.430;2023-10-13T22:37:43;10.17;;;8.87;;
6638;SDS011;3355;52.882;8.430;2023-10-13T22:40:10;15.10;;;9.47;;
6638;SDS011;3355;52.882;8.430;2023-10-13T22:42:37;10.10;;;9.00;;
6638;SDS011;3355;52.882;8.430;2023-10-13T22:45:04;12.00;;;8.10;;
6638;SDS011;3355;52.882;8.430;2023-10-13T22:47:36;12.67;;;8.50;;
6638;SDS011;3355;52.882;8.430;2023-10-13T22:50:02;11.27;;;8.70;;
6638;SDS011;3355;52.882;8.430;2023-10-13T22:52:29;12.40;;;9.83;;
6638;SDS011;3355;52.882;8.430;2023-10-13T22:54:56;13.70;;;9.10;;
6638;SDS011;3355;52.882;8.430;2023-10-13T22:57:22;11.57;;;8.30;;
6638;SDS011;3355;52.882;8.430;2023-10-13T22:59:49;11.00;;;8.90;;
